createdAt,value
2023-04-13T00:02:27.724Z,7.50
2023-04-13T00:04:58.557Z,7.50
2023-04-13T00:07:29.283Z,7.50
2023-04-13T00:10:01.494Z,7.50
2023-04-13T00:12:33.694Z,7.60
2023-04-13T00:15:04.455Z,7.50
2023-04-13T00:17:35.242Z,7.50
2023-04-13T00:20:08.390Z,7.50
2023-04-13T00:22:39.080Z,7.80
2023-04-13T00:25:11.731Z,7.80
2023-04-13T00:27:43.785Z,7.70
2023-04-13T00:30:16.326Z,7.80
2023-04-13T00:32:47.759Z,7.60
2023-04-13T00:35:22.191Z,7.80
2023-04-13T00:37:53.108Z,7.80
2023-04-13T00:40:24.669Z,7.50
2023-04-13T00:42:55.878Z,7.30
2023-04-13T00:45:28.353Z,7.30
2023-04-13T00:48:00.399Z,7.20
2023-04-13T00:50:34.140Z,7.30
2023-04-13T00:53:09.653Z,7.30
2023-04-13T00:55:42.204Z,7.20
2023-04-13T00:58:14.217Z,6.90
2023-04-13T01:00:44.955Z,7.00
2023-04-13T01:03:16.163Z,7.10
2023-04-13T01:05:51.950Z,7.00
2023-04-13T01:08:27.726Z,7.20
2023-04-13T01:11:01.627Z,7.20
2023-04-13T01:13:35.412Z,7.00
2023-04-13T01:16:09.787Z,6.90
2023-04-13T01:18:43.682Z,6.80
2023-04-13T01:21:17.649Z,6.70
2023-04-13T01:23:54.566Z,6.50
2023-04-13T01:26:27.552Z,6.40
2023-04-13T01:28:58.340Z,6.30
2023-04-13T01:31:30.007Z,6.20
2023-04-13T01:34:01.178Z,6.10
2023-04-13T01:36:33.926Z,6.00
2023-04-13T01:39:05.940Z,6.00
2023-04-13T01:41:36.754Z,5.80
2023-04-13T01:44:07.961Z,5.80
2023-04-13T01:46:39.782Z,5.70
2023-04-13T01:49:11.429Z,5.60
2023-04-13T01:51:45.429Z,5.50
2023-04-13T01:54:19.001Z,5.40
2023-04-13T01:56:50.661Z,5.40
2023-04-13T01:59:22.803Z,5.20
2023-04-13T02:01:54.859Z,5.00
2023-04-13T02:04:25.690Z,5.00
2023-04-13T02:06:56.625Z,5.00
2023-04-13T02:09:28.368Z,5.00
2023-04-13T02:11:59.081Z,5.10
2023-04-13T02:14:31.190Z,5.20
2023-04-13T02:17:01.983Z,5.20
2023-04-13T02:19:32.654Z,5.20
2023-04-13T02:22:03.377Z,5.10
2023-04-13T02:24:33.958Z,5.00
2023-04-13T02:27:04.848Z,4.80
2023-04-13T02:29:35.923Z,4.60
2023-04-13T02:32:08.011Z,4.50
2023-04-13T02:34:38.819Z,4.40
2023-04-13T02:37:09.587Z,4.50
2023-04-13T02:39:40.338Z,4.60
2023-04-13T02:42:11.277Z,4.60
2023-04-13T02:44:41.985Z,4.50
2023-04-13T02:47:12.548Z,4.60
2023-04-13T02:49:43.644Z,4.60
2023-04-13T02:52:15.386Z,4.70
2023-04-13T02:54:46.904Z,4.80
2023-04-13T02:57:17.765Z,4.90
2023-04-13T02:59:48.408Z,5.00
2023-04-13T03:02:19.422Z,5.10
2023-04-13T03:04:50.835Z,5.10
2023-04-13T03:07:21.466Z,5.10
2023-04-13T03:09:53.319Z,5.20
2023-04-13T03:12:24.141Z,5.20
2023-04-13T03:14:54.790Z,5.10
2023-04-13T03:17:25.584Z,5.10
2023-04-13T03:19:56.344Z,5.20
2023-04-13T03:22:28.777Z,5.30
2023-04-13T03:24:59.372Z,5.20
2023-04-13T03:27:30.167Z,5.30
2023-04-13T03:30:01.156Z,5.30
2023-04-13T03:32:32.748Z,5.00
2023-04-13T03:35:03.483Z,5.00
2023-04-13T03:37:35.721Z,5.10
2023-04-13T03:40:10.424Z,5.30
2023-04-13T03:42:41.138Z,5.20
2023-04-13T03:45:13.422Z,5.10
2023-04-13T03:47:44.183Z,5.10
2023-04-13T03:50:14.848Z,5.30
2023-04-13T03:52:45.674Z,5.40
2023-04-13T03:55:16.547Z,5.40
2023-04-13T04:00:24.164Z,5.20
2023-04-13T04:02:54.954Z,5.10
2023-04-13T04:05:25.753Z,5.10
2023-04-13T04:07:56.499Z,5.30
2023-04-13T04:10:27.461Z,5.40
2023-04-13T04:12:58.558Z,5.30
2023-04-13T04:15:29.724Z,5.40
2023-04-13T04:18:01.229Z,5.40
2023-04-13T04:20:32.191Z,5.30
2023-04-13T04:23:04.453Z,5.10
2023-04-13T04:25:37.220Z,5.20
2023-04-13T04:28:08.118Z,5.30
2023-04-13T04:30:38.802Z,5.20
2023-04-13T04:33:09.419Z,5.10
2023-04-13T04:35:42.067Z,5.00
2023-04-13T04:38:12.688Z,4.80
2023-04-13T04:40:44.968Z,4.80
2023-04-13T04:43:15.848Z,4.70
2023-04-13T04:45:47.306Z,4.80
2023-04-13T04:48:18.207Z,4.80
2023-04-13T04:50:49.175Z,4.90
2023-04-13T04:53:19.764Z,4.80
2023-04-13T04:55:50.345Z,4.80
2023-04-13T04:58:20.976Z,4.70
2023-04-13T05:00:52.857Z,4.60
2023-04-13T05:03:23.897Z,4.50
2023-04-13T05:05:54.556Z,4.40
2023-04-13T05:08:25.236Z,4.60
2023-04-13T05:10:55.965Z,4.70
2023-04-13T05:13:26.665Z,4.70
2023-04-13T05:15:57.348Z,4.80
2023-04-13T05:18:28.077Z,4.90
2023-04-13T05:20:58.876Z,5.10
2023-04-13T05:23:29.440Z,5.10
2023-04-13T05:26:00.033Z,5.10
2023-04-13T05:28:30.790Z,5.30
2023-04-13T05:31:03.900Z,5.30
2023-04-13T05:33:34.866Z,5.40
2023-04-13T05:36:06.852Z,5.50
2023-04-13T05:38:37.507Z,5.70
2023-04-13T05:41:10.546Z,5.70
2023-04-13T05:43:41.605Z,5.90
2023-04-13T05:46:30.991Z,5.90
2023-04-13T05:49:02.194Z,6.00
2023-04-13T05:51:33.334Z,6.00
2023-04-13T05:54:04.355Z,5.90
2023-04-13T05:56:35.000Z,5.90
2023-04-13T05:59:05.675Z,5.80
2023-04-13T06:01:36.698Z,5.80
2023-04-13T06:04:09.781Z,5.90
2023-04-13T06:06:41.085Z,5.80
2023-04-13T06:09:11.752Z,5.80
2023-04-13T06:11:42.707Z,5.80
2023-04-13T06:14:13.656Z,5.80
2023-04-13T06:16:44.772Z,5.80
2023-04-13T06:19:15.381Z,5.80
2023-04-13T06:21:46.071Z,5.80
2023-04-13T06:24:17.744Z,5.90
2023-04-13T06:26:48.989Z,6.10
2023-04-13T06:29:19.631Z,6.10
2023-04-13T06:31:50.363Z,6.00
2023-04-13T06:36:59.838Z,6.10
2023-04-13T06:42:08.202Z,6.50
2023-04-13T06:44:39.219Z,6.70
2023-04-13T06:47:12.215Z,6.80
2023-04-13T06:49:43.512Z,6.90
2023-04-13T06:52:15.235Z,7.10
2023-04-13T06:54:46.482Z,7.20
2023-04-13T06:57:19.173Z,7.30
2023-04-13T06:59:50.070Z,7.40
2023-04-13T07:02:21.215Z,7.50
2023-04-13T07:04:52.732Z,7.50
2023-04-13T07:07:24.770Z,7.70
2023-04-13T07:09:56.705Z,7.80
2023-04-13T07:12:27.613Z,7.90
2023-04-13T07:14:59.200Z,8.10
2023-04-13T07:17:29.949Z,8.00
2023-04-13T07:20:00.741Z,8.10
2023-04-13T07:22:35.555Z,8.20
2023-04-13T07:25:07.732Z,8.40
2023-04-13T07:27:38.428Z,8.30
2023-04-13T07:30:11.890Z,8.40
2023-04-13T07:35:19.313Z,8.40
2023-04-13T07:37:52.231Z,8.60
2023-04-13T07:40:22.410Z,8.80
2023-04-13T07:42:53.290Z,9.00
2023-04-13T07:45:23.937Z,9.10
2023-04-13T07:50:32.353Z,9.30
2023-04-13T07:53:03.593Z,9.60
2023-04-13T07:55:34.326Z,9.50
2023-04-13T08:00:43.359Z,9.20
2023-04-13T08:03:14.402Z,9.20
2023-04-13T08:05:47.254Z,8.90
2023-04-13T08:08:17.690Z,8.80
2023-04-13T08:10:48.296Z,8.90
2023-04-13T08:13:19.564Z,9.30
2023-04-13T08:15:50.916Z,9.20
2023-04-13T08:21:01.738Z,9.40
2023-04-13T08:23:32.516Z,9.50
2023-04-13T08:26:04.054Z,9.60
2023-04-13T08:28:35.570Z,9.60
2023-04-13T08:31:07.675Z,9.60
2023-04-13T08:33:39.322Z,9.60
2023-04-13T08:36:29.998Z,9.30
2023-04-13T08:39:00.875Z,8.90
2023-04-13T08:41:36.421Z,8.80
2023-04-13T08:44:07.926Z,8.70
2023-04-13T08:46:57.610Z,8.70
2023-04-13T08:52:10.172Z,8.60
2023-04-13T08:55:01.353Z,9.00
2023-04-13T08:57:33.779Z,9.20
2023-04-13T09:00:13.009Z,9.00
2023-04-13T09:05:21.170Z,9.10
2023-04-13T09:07:56.156Z,9.10
2023-04-13T09:10:27.933Z,9.20
2023-04-13T09:13:00.365Z,9.10
2023-04-13T09:15:32.221Z,9.00
2023-04-13T09:18:11.066Z,9.20
2023-04-13T09:20:42.582Z,9.50
2023-04-13T09:23:17.335Z,9.90
2023-04-13T09:25:48.769Z,10.00
2023-04-13T09:28:21.484Z,9.70
2023-04-13T09:30:52.184Z,9.40
2023-04-13T09:33:22.997Z,9.20
2023-04-13T09:35:56.859Z,9.00
2023-04-13T09:38:33.695Z,8.90
2023-04-13T09:41:04.586Z,8.60
2023-04-13T09:43:39.524Z,8.60
2023-04-13T09:49:03.385Z,8.90
2023-04-13T09:51:42.113Z,9.40
2023-04-13T09:54:13.672Z,9.30
2023-04-13T09:56:54.947Z,9.60
2023-04-13T09:59:27.431Z,9.20
2023-04-13T10:01:58.693Z,9.30
2023-04-13T10:04:30.043Z,9.40
2023-04-13T10:09:39.500Z,9.60
2023-04-13T10:12:13.865Z,9.70
2023-04-13T10:17:44.096Z,10.20
2023-04-13T10:20:16.228Z,10.30
2023-04-13T10:22:48.335Z,10.00
2023-04-13T10:25:32.258Z,10.20
2023-04-13T10:30:36.543Z,10.30
2023-04-13T10:33:11.501Z,10.70
2023-04-13T10:35:43.593Z,11.20
2023-04-13T10:38:15.728Z,11.20
2023-04-13T10:40:48.671Z,11.50
2023-04-13T10:43:29.290Z,11.50
2023-04-13T10:46:10.960Z,11.10
2023-04-13T10:48:43.382Z,10.00
2023-04-13T10:51:14.062Z,9.60
2023-04-13T10:53:44.897Z,9.90
2023-04-13T10:56:21.457Z,10.30
2023-04-13T10:58:55.642Z,10.60
2023-04-13T11:01:26.934Z,10.30
2023-04-13T11:04:05.602Z,10.20
2023-04-13T11:06:38.153Z,10.30
2023-04-13T11:09:10.544Z,10.40
2023-04-13T11:14:24.375Z,9.90
2023-04-13T11:19:35.978Z,9.30
2023-04-13T11:22:13.258Z,9.20
2023-04-13T11:27:21.851Z,9.80
2023-04-13T11:30:02.789Z,10.20
2023-04-13T11:32:34.612Z,10.70
2023-04-13T11:35:10.215Z,11.30
2023-04-13T11:37:42.040Z,11.80
2023-04-13T11:40:17.548Z,12.30
2023-04-13T11:42:49.534Z,12.60
2023-04-13T11:45:21.859Z,12.50
2023-04-13T11:47:53.858Z,12.10
2023-04-13T11:50:26.240Z,11.90
2023-04-13T11:52:58.125Z,11.60
2023-04-13T11:55:30.139Z,11.40
2023-04-13T11:58:03.056Z,11.50
2023-04-13T12:05:50.006Z,11.50
2023-04-13T12:08:26.015Z,12.10
2023-04-13T12:13:49.736Z,12.10
2023-04-13T12:19:27.462Z,13.30
2023-04-13T12:22:00.231Z,12.70
2023-04-13T12:24:39.510Z,12.50
2023-04-13T12:27:18.317Z,13.40
2023-04-13T12:29:43.890Z,14.30
2023-04-13T12:32:15.585Z,13.70
2023-04-13T12:34:47.136Z,13.30
2023-04-13T12:37:18.077Z,12.50
2023-04-13T12:39:48.955Z,13.00
2023-04-13T12:42:19.654Z,12.20
2023-04-13T12:44:50.424Z,12.30
2023-04-13T12:49:59.322Z,11.90
2023-04-13T12:52:31.521Z,11.50
2023-04-13T12:55:21.032Z,11.30
2023-04-13T13:00:29.688Z,10.90
2023-04-13T13:03:12.987Z,10.20
2023-04-13T13:05:33.160Z,10.00
2023-04-13T13:08:04.312Z,10.20
2023-04-13T13:10:35.242Z,10.80
2023-04-13T13:13:06.441Z,11.80
2023-04-13T13:15:37.211Z,12.80
2023-04-13T13:18:10.415Z,12.70
2023-04-13T13:20:42.031Z,12.70
2023-04-13T13:23:13.860Z,11.90
2023-04-13T13:25:52.671Z,11.80
2023-04-13T13:28:17.382Z,11.90
2023-04-13T13:30:48.209Z,10.80
2023-04-13T13:35:57.587Z,10.30
2023-04-13T13:38:28.274Z,10.80
2023-04-13T13:40:59.304Z,10.60
2023-04-13T13:43:29.928Z,11.10
2023-04-13T13:46:00.591Z,11.70
2023-04-13T13:48:31.494Z,11.00
2023-04-13T13:51:02.912Z,10.30
2023-04-13T13:53:34.942Z,9.90
2023-04-13T13:56:07.212Z,9.80
2023-04-13T14:01:15.031Z,9.10
2023-04-13T14:03:46.163Z,9.00
2023-04-13T14:06:16.997Z,9.00
2023-04-13T14:08:47.806Z,9.00
2023-04-13T14:11:18.641Z,8.90
2023-04-13T14:13:50.307Z,8.80
2023-04-13T14:16:21.094Z,8.90
2023-04-13T14:18:52.098Z,9.10
2023-04-13T14:21:24.206Z,9.40
2023-04-13T14:23:57.078Z,9.70
2023-04-13T14:26:30.599Z,10.10
2023-04-13T14:29:03.145Z,10.40
2023-04-13T14:34:16.823Z,12.50
2023-04-13T14:36:54.435Z,13.60
2023-04-13T14:39:27.039Z,14.50
2023-04-13T14:41:59.391Z,15.00
2023-04-13T14:44:33.450Z,13.60
2023-04-13T14:49:45.677Z,14.20
2023-04-13T14:52:16.526Z,14.00
2023-04-13T14:54:47.606Z,13.30
2023-04-13T14:57:18.335Z,12.70
2023-04-13T14:59:49.066Z,12.00
2023-04-13T15:02:20.288Z,12.00
2023-04-13T15:04:51.189Z,12.20
2023-04-13T15:07:23.688Z,12.30
2023-04-13T15:09:54.816Z,12.40
2023-04-13T15:12:25.993Z,11.70
2023-04-13T15:14:57.157Z,11.60
2023-04-13T15:17:29.853Z,11.90
2023-04-13T15:20:01.162Z,11.70
2023-04-13T15:22:34.127Z,11.50
2023-04-13T15:25:05.014Z,10.80
2023-04-13T15:27:35.663Z,10.40
2023-04-13T15:30:10.143Z,10.10
2023-04-13T15:32:41.292Z,9.90
2023-04-13T15:37:51.694Z,9.50
2023-04-13T15:43:00.579Z,11.60
2023-04-13T15:45:31.708Z,11.70
2023-04-13T15:48:02.803Z,11.40
2023-04-13T15:50:33.677Z,11.10
2023-04-13T15:53:05.312Z,10.80
2023-04-13T15:55:37.037Z,11.20
2023-04-13T15:58:08.618Z,11.20
2023-04-13T16:00:39.731Z,11.00
2023-04-13T16:03:11.089Z,10.70
2023-04-13T16:05:42.172Z,10.70
2023-04-13T16:08:13.369Z,10.70
2023-04-13T16:10:44.308Z,10.40
2023-04-13T16:13:19.999Z,10.30
2023-04-13T16:15:53.964Z,10.40
2023-04-13T16:18:28.123Z,10.20
2023-04-13T16:20:59.382Z,9.70
2023-04-13T16:23:31.127Z,9.80
2023-04-13T16:26:02.202Z,9.80
2023-04-13T16:28:34.806Z,9.80
2023-04-13T16:31:07.542Z,9.90
2023-04-13T16:33:39.229Z,9.90
2023-04-13T16:36:12.113Z,9.80
2023-04-13T16:38:43.984Z,9.70
2023-04-13T16:43:53.587Z,9.80
2023-04-13T16:46:24.502Z,9.80
2023-04-13T16:48:55.721Z,9.80
2023-04-13T16:51:27.956Z,9.80
2023-04-13T16:53:59.044Z,9.70
2023-04-13T16:56:32.432Z,9.60
2023-04-13T16:59:03.883Z,9.60
2023-04-13T17:01:37.882Z,9.50
2023-04-13T17:04:08.293Z,9.50
2023-04-13T17:06:40.360Z,9.60
2023-04-13T17:09:12.602Z,9.60
2023-04-13T17:11:43.752Z,9.40
2023-04-13T17:14:15.771Z,9.30
2023-04-13T17:16:47.262Z,9.40
2023-04-13T17:19:19.255Z,9.40
2023-04-13T17:21:52.326Z,9.30
2023-04-13T17:24:23.800Z,9.30
2023-04-13T17:26:55.507Z,9.20
2023-04-13T17:29:26.425Z,9.20
2023-04-13T17:31:57.476Z,9.30
2023-04-13T17:34:28.416Z,9.30
2023-04-13T17:36:59.223Z,9.30
2023-04-13T17:39:30.040Z,9.20
2023-04-13T17:42:00.677Z,9.10
2023-04-13T17:44:31.347Z,9.00
2023-04-13T17:47:02.139Z,8.80
2023-04-13T17:49:32.810Z,8.70
2023-04-13T17:52:03.561Z,8.40
2023-04-13T17:54:34.431Z,8.10
2023-04-13T17:57:07.057Z,7.90
2023-04-13T17:59:37.852Z,7.90
2023-04-13T18:02:09.512Z,7.80
2023-04-13T18:04:40.300Z,7.80
2023-04-13T18:07:11.217Z,7.70
2023-04-13T18:09:42.285Z,7.60
2023-04-13T18:12:13.086Z,7.60
2023-04-13T18:14:43.728Z,7.60
2023-04-13T18:17:14.422Z,7.40
2023-04-13T18:19:45.084Z,7.30
2023-04-13T18:22:15.957Z,7.10
2023-04-13T18:24:47.661Z,7.10
2023-04-13T18:27:18.735Z,6.90
2023-04-13T18:29:50.238Z,6.70
2023-04-13T18:32:22.427Z,6.70
2023-04-13T18:34:53.307Z,6.70
2023-04-13T18:37:23.966Z,6.70
2023-04-13T18:39:58.535Z,6.50
2023-04-13T18:42:30.278Z,6.40
2023-04-13T18:45:01.184Z,6.20
2023-04-13T18:47:32.817Z,6.00
2023-04-13T18:50:06.238Z,6.10
2023-04-13T18:52:37.581Z,6.30
2023-04-13T18:55:10.002Z,6.30
2023-04-13T18:57:41.867Z,6.30
2023-04-13T19:02:51.457Z,6.10
2023-04-13T19:05:23.881Z,6.10
2023-04-13T19:07:59.192Z,6.10
2023-04-13T19:10:31.630Z,6.20
2023-04-13T19:13:03.525Z,6.20
2023-04-13T19:15:35.726Z,6.10
2023-04-13T19:18:08.146Z,6.10
2023-04-13T19:20:42.314Z,6.10
2023-04-13T19:23:13.920Z,6.00
2023-04-13T19:25:45.472Z,6.20
2023-04-13T19:28:17.434Z,6.20
2023-04-13T19:30:50.373Z,6.30
2023-04-13T19:33:22.934Z,6.30
2023-04-13T19:35:54.786Z,6.20
2023-04-13T19:38:27.436Z,6.20
2023-04-13T19:40:59.286Z,6.10
2023-04-13T19:43:30.485Z,6.10
2023-04-13T19:46:01.299Z,6.10
2023-04-13T19:48:32.323Z,6.10
2023-04-13T19:51:03.568Z,6.00
2023-04-13T19:53:35.296Z,6.10
2023-04-13T19:56:06.616Z,6.00
2023-04-13T19:58:38.094Z,5.90
2023-04-13T20:03:48.234Z,6.70
2023-04-13T20:08:58.588Z,7.10
2023-04-13T20:11:29.580Z,7.20
2023-04-13T20:14:00.872Z,7.20
2023-04-13T20:16:32.242Z,7.20
2023-04-13T20:19:03.625Z,7.20
2023-04-13T20:24:13.243Z,7.20
2023-04-13T20:26:44.529Z,7.20
2023-04-13T20:29:18.475Z,7.10
2023-04-13T20:31:49.642Z,7.10
2023-04-13T20:34:21.174Z,7.20
2023-04-13T20:36:53.093Z,7.20
2023-04-13T20:39:25.767Z,7.10
2023-04-13T20:41:57.370Z,6.90
2023-04-13T20:47:07.017Z,6.90
2023-04-13T20:49:39.313Z,6.90
2023-04-13T20:52:10.281Z,6.90
2023-04-13T20:54:41.508Z,6.80
2023-04-13T20:57:12.217Z,6.60
2023-04-13T20:59:43.070Z,6.70
2023-04-13T21:04:51.262Z,6.50
2023-04-13T21:07:22.850Z,6.40
2023-04-13T21:09:53.666Z,6.40
2023-04-13T21:12:24.692Z,6.50
2023-04-13T21:14:55.593Z,6.50
2023-04-13T21:17:26.907Z,6.50
2023-04-13T21:19:58.014Z,6.60
2023-04-13T21:22:28.848Z,6.60
2023-04-13T21:24:59.650Z,6.60
2023-04-13T21:27:30.537Z,6.60
2023-04-13T21:30:02.258Z,6.60
2023-04-13T21:32:33.076Z,6.70
2023-04-13T21:35:03.892Z,6.60
2023-04-13T21:37:34.680Z,6.70
2023-04-13T21:40:05.811Z,6.70
2023-04-13T21:42:37.322Z,6.80
2023-04-13T21:45:10.941Z,6.80
2023-04-13T21:47:41.555Z,6.80
2023-04-13T21:50:13.123Z,6.70
2023-04-13T21:52:44.160Z,6.70
2023-04-13T21:55:16.588Z,6.60
2023-04-13T21:57:47.432Z,6.40
2023-04-13T22:00:19.738Z,6.30
2023-04-13T22:02:51.663Z,6.30
2023-04-13T22:05:33.154Z,6.30
2023-04-13T22:08:04.507Z,6.20
2023-04-13T22:10:35.545Z,6.30
2023-04-13T22:13:06.426Z,6.30
2023-04-13T22:15:37.437Z,6.20
2023-04-13T22:18:08.847Z,6.20
2023-04-13T22:20:39.903Z,6.10
2023-04-13T22:23:10.668Z,6.10
2023-04-13T22:25:41.936Z,6.00
2023-04-13T22:28:12.513Z,6.00
2023-04-13T22:30:44.607Z,6.00
2023-04-13T22:33:15.354Z,6.00
2023-04-13T22:35:46.144Z,5.90
2023-04-13T22:38:17.325Z,5.90
2023-04-13T22:40:48.810Z,5.90
2023-04-13T22:43:19.801Z,5.90
2023-04-13T22:45:58.976Z,6.10
2023-04-13T22:48:32.205Z,6.20
2023-04-13T22:51:03.765Z,6.10
2023-04-13T22:53:34.772Z,6.10
2023-04-13T22:56:06.478Z,6.10
2023-04-13T22:58:37.614Z,6.20
2023-04-13T23:01:08.595Z,6.20
2023-04-13T23:03:39.801Z,6.20
2023-04-13T23:06:11.296Z,6.20
2023-04-13T23:08:42.491Z,6.30
2023-04-13T23:11:13.775Z,6.20
2023-04-13T23:13:46.298Z,6.20
2023-04-13T23:16:17.123Z,6.20
2023-04-13T23:18:48.299Z,6.20
2023-04-13T23:21:19.419Z,6.20
2023-04-13T23:23:50.135Z,6.20
2023-04-13T23:26:20.791Z,6.10
2023-04-13T23:28:51.484Z,6.10
2023-04-13T23:31:22.269Z,6.00
2023-04-13T23:33:54.873Z,6.00
2023-04-13T23:36:25.170Z,6.00
2023-04-13T23:38:55.734Z,5.90
2023-04-13T23:41:26.913Z,5.80
2023-04-13T23:43:57.589Z,5.80
2023-04-13T23:46:28.963Z,5.80
2023-04-13T23:48:59.814Z,5.80
2023-04-13T23:51:31.337Z,5.80
2023-04-13T23:54:02.309Z,5.80
2023-04-13T23:56:34.058Z,5.80
2023-04-13T23:59:04.735Z,5.90
